sensor_id;sensor_type;location;lat;lon;timestamp;pressure;altitude;pressure_sealevel;temperature;humidity
67931;BME280;63902;52.000;5.954;2023-02-13T00:00:07;103374.50;;;5.66;100.00
67931;BME280;63902;52.000;5.954;2023-02-13T00:01:08;103379.75;;;5.64;100.00
67931;BME280;63902;52.000;5.954;2023-02-13T00:02:08;103378.00;;;5.63;100.00
67931;BME280;63902;52.000;5.954;2023-02-13T00:03:09;103373.63;;;5.64;100.00
67931;BME280;63902;52.000;5.954;2023-02-13T00:04:10;103378.88;;;5.64;100.00
67931;BME280;63902;52.000;5.954;2023-02-13T00:05:10;103378.00;;;5.65;100.00
67931;BME280;63902;52.000;5.954;2023-02-13T00:06:11;103366.50;;;5.59;100.00
67931;BME280;63902;52.000;5.954;2023-02-13T00:07:12;103378.94;;;5.67;100.00
67931;BME280;63902;52.000;5.954;2023-02-13T00:08:12;103364.78;;;5.61;99.84
67931;BME280;63902;52.000;5.954;2023-02-13T00:09:14;103377.09;;;5.63;100.00
67931;BME280;63902;52.000;5.954;2023-02-13T00:10:15;103377.97;;;5.61;100.00
67931;BME280;63902;52.000;5.954;2023-02-13T00:11:16;103378.00;;;5.63;99.92
67931;BME280;63902;52.000;5.954;2023-02-13T00:12:16;103367.44;;;5.61;99.77
67931;BME280;63902;52.000;5.954;2023-02-13T00:13:17;103365.59;;;5.57;100.00
67931;BME280;63902;52.000;5.954;2023-02-13T00:14:17;103368.28;;;5.60;99.89
67931;BME280;63902;52.000;5.954;2023-02-13T00:15:18;103367.44;;;5.61;100.00
67931;BME280;63902;52.000;5.954;2023-02-13T00:16:18;103370.88;;;5.59;100.00
67931;BME280;63902;52.000;5.954;2023-02-13T00:17:19;103363.81;;;5.56;100.00
67931;BME280;63902;52.000;5.954;2023-02-13T00:18:19;103371.75;;;5.58;100.00
67931;BME280;63902;52.000;5.954;2023-02-13T00:19:20;103366.44;;;5.56;100.00
67931;BME280;63902;52.000;5.954;2023-02-13T00:20:20;103365.59;;;5.57;100.00
67931;BME280;63902;52.000;5.954;2023-02-13T00:21:21;103362.88;;;5.54;100.00
67931;BME280;63902;52.000;5.954;2023-02-13T00:22:22;103360.34;;;5.57;100.00
67931;BME280;63902;52.000;5.954;2023-02-13T00:23:22;103360.34;;;5.57;100.00
67931;BME280;63902;52.000;5.954;2023-02-13T00:24:24;103357.59;;;5.53;99.90
67931;BME280;63902;52.000;5.954;2023-02-13T00:25:24;103361.16;;;5.56;100.00
67931;BME280;63902;52.000;5.954;2023-02-13T00:26:25;103354.16;;;5.55;100.00
67931;BME280;63902;52.000;5.954;2023-02-13T00:27:25;103357.59;;;5.54;100.00
67931;BME280;63902;52.000;5.954;2023-02-13T00:28:26;103354.97;;;5.54;100.00
67931;BME280;63902;52.000;5.954;2023-02-13T00:29:27;103347.06;;;5.53;100.00
67931;BME280;63902;52.000;5.954;2023-02-13T00:30:27;103355.13;;;5.60;99.84
67931;BME280;63902;52.000;5.954;2023-02-13T00:31:28;103355.97;;;5.59;99.73
67931;BME280;63902;52.000;5.954;2023-02-13T00:32:28;103354.16;;;5.57;99.65
67931;BME280;63902;52.000;5.954;2023-02-13T00:33:29;103355.94;;;5.58;99.62
67931;BME280;63902;52.000;5.954;2023-02-13T00:34:29;103351.50;;;5.55;99.78
67931;BME280;63902;52.000;5.954;2023-02-13T00:35:30;103354.16;;;5.57;99.71
67931;BME280;63902;52.000;5.954;2023-02-13T00:36:30;103351.53;;;5.57;99.79
67931;BME280;63902;52.000;5.954;2023-02-13T00:37:32;103351.53;;;5.57;99.91
67931;BME280;63902;52.000;5.954;2023-02-13T00:38:32;103353.31;;;5.58;99.73
67931;BME280;63902;52.000;5.954;2023-02-13T00:39:34;103344.50;;;5.56;99.85
67931;BME280;63902;52.000;5.954;2023-02-13T00:40:35;103348.00;;;5.56;99.48
67931;BME280;63902;52.000;5.954;2023-02-13T00:41:35;103347.06;;;5.54;99.82
67931;BME280;63902;52.000;5.954;2023-02-13T00:42:36;103346.13;;;5.49;100.00
67931;BME280;63902;52.000;5.954;2023-02-13T00:43:36;103344.44;;;5.53;99.88
67931;BME280;63902;52.000;5.954;2023-02-13T00:44:37;103337.34;;;5.50;99.92
67931;BME280;63902;52.000;5.954;2023-02-13T00:45:37;103346.19;;;5.54;100.00
67931;BME280;63902;52.000;5.954;2023-02-13T00:46:37;103347.03;;;5.51;99.82
67931;BME280;63902;52.000;5.954;2023-02-13T00:47:38;103350.53;;;5.50;99.70
67931;BME280;63902;52.000;5.954;2023-02-13T00:48:39;103355.78;;;5.50;99.74
67931;BME280;63902;52.000;5.954;2023-02-13T00:49:39;103348.78;;;5.51;99.93
67931;BME280;63902;52.000;5.954;2023-02-13T00:50:40;103354.91;;;5.51;99.96
67931;BME280;63902;52.000;5.954;2023-02-13T00:51:40;103354.91;;;5.50;99.83
67931;BME280;63902;52.000;5.954;2023-02-13T00:52:41;103351.38;;;5.49;100.00
67931;BME280;63902;52.000;5.954;2023-02-13T00:53:41;103351.28;;;5.45;99.54
67931;BME280;63902;52.000;5.954;2023-02-13T00:54:43;103340.69;;;5.42;99.85
67931;BME280;63902;52.000;5.954;2023-02-13T00:55:43;103355.72;;;5.47;99.55
67931;BME280;63902;52.000;5.954;2023-02-13T00:56:44;103358.34;;;5.47;100.00
67931;BME280;63902;52.000;5.954;2023-02-13T00:57:44;103356.53;;;5.45;99.96
67931;BME280;63902;52.000;5.954;2023-02-13T00:58:45;103361.00;;;5.47;100.00
67931;BME280;63902;52.000;5.954;2023-02-13T00:59:45;103352.22;;;5.47;100.00
67931;BME280;63902;52.000;5.954;2023-02-13T01:00:46;103345.09;;;5.43;99.76
67931;BME280;63902;52.000;5.954;2023-02-13T01:01:46;103349.56;;;5.47;99.87
67931;BME280;63902;52.000;5.954;2023-02-13T01:02:47;103346.97;;;5.48;99.97
67931;BME280;63902;52.000;5.954;2023-02-13T01:03:47;103351.34;;;5.46;99.93
67931;BME280;63902;52.000;5.954;2023-02-13T01:04:48;103340.69;;;5.42;99.95
67931;BME280;63902;52.000;5.954;2023-02-13T01:05:49;103341.63;;;5.45;100.00
67931;BME280;63902;52.000;5.954;2023-02-13T01:06:49;103347.72;;;5.43;100.00
67931;BME280;63902;52.000;5.954;2023-02-13T01:07:50;103338.94;;;5.42;100.00
67931;BME280;63902;52.000;5.954;2023-02-13T01:08:50;103345.13;;;5.44;100.00
67931;BME280;63902;52.000;5.954;2023-02-13T01:09:52;103345.13;;;5.44;100.00
67931;BME280;63902;52.000;5.954;2023-02-13T01:10:53;103345.13;;;5.44;100.00
67931;BME280;63902;52.000;5.954;2023-02-13T01:11:54;103344.28;;;5.45;100.00
67931;BME280;63902;52.000;5.954;2023-02-13T01:12:54;103346.88;;;5.44;99.88
67931;BME280;63902;52.000;5.954;2023-02-13T01:13:55;103349.53;;;5.45;100.00
67931;BME280;63902;52.000;5.954;2023-02-13T01:14:55;103343.28;;;5.40;100.00
67931;BME280;63902;52.000;5.954;2023-02-13T01:15:56;103357.44;;;5.45;100.00
67931;BME280;63902;52.000;5.954;2023-02-13T01:16:56;103350.41;;;5.44;100.00
67931;BME280;63902;52.000;5.954;2023-02-13T01:17:57;103349.47;;;5.41;100.00
67931;BME280;63902;52.000;5.954;2023-02-13T01:18:58;103353.03;;;5.44;100.00
67931;BME280;63902;52.000;5.954;2023-02-13T01:19:58;103352.16;;;5.44;100.00
67931;BME280;63902;52.000;5.954;2023-02-13T01:21:00;103350.41;;;5.44;100.00
67931;BME280;63902;52.000;5.954;2023-02-13T01:22:01;103359.22;;;5.46;100.00
67931;BME280;63902;52.000;5.954;2023-02-13T01:23:01;103355.72;;;5.47;100.00
67931;BME280;63902;52.000;5.954;2023-02-13T01:24:03;103352.16;;;5.45;99.90
67931;BME280;63902;52.000;5.954;2023-02-13T01:25:06;103358.34;;;5.47;100.00
67931;BME280;63902;52.000;5.954;2023-02-13T01:26:10;103352.16;;;5.45;100.00
67931;BME280;63902;52.000;5.954;2023-02-13T01:27:10;103349.53;;;5.45;100.00
67931;BME280;63902;52.000;5.954;2023-02-13T01:28:11;103343.28;;;5.40;100.00
67931;BME280;63902;52.000;5.954;2023-02-13T01:29:12;103348.66;;;5.45;100.00
67931;BME280;63902;52.000;5.954;2023-02-13T01:30:14;103345.13;;;5.44;100.00
67931;BME280;63902;52.000;5.954;2023-02-13T01:31:15;103347.78;;;5.44;100.00
67931;BME280;63902;52.000;5.954;2023-02-13T01:32:16;103346.88;;;5.44;100.00
67931;BME280;63902;52.000;5.954;2023-02-13T01:33:16;103348.59;;;5.43;100.00
67931;BME280;63902;52.000;5.954;2023-02-13T01:34:17;103347.72;;;5.43;100.00
67931;BME280;63902;52.000;5.954;2023-02-13T01:35:17;103347.72;;;5.41;100.00
67931;BME280;63902;52.000;5.954;2023-02-13T01:36:18;103347.72;;;5.41;100.00
67931;BME280;63902;52.000;5.954;2023-02-13T01:37:18;103343.28;;;5.40;100.00
67931;BME280;63902;52.000;5.954;2023-02-13T01:38:19;103345.06;;;5.41;100.00
67931;BME280;63902;52.000;5.954;2023-02-13T01:39:19;103339.81;;;5.41;100.00
67931;BME280;63902;52.000;5.954;2023-02-13T01:40:21;103345.97;;;5.42;100.00
67931;BME280;63902;52.000;5.954;2023-02-13T01:41:22;103341.50;;;5.39;100.00
67931;BME280;63902;52.000;5.954;2023-02-13T01:42:25;103336.25;;;5.39;100.00
67931;BME280;63902;52.000;5.954;2023-02-13T01:43:42;103341.56;;;5.42;100.00
67931;BME280;63902;52.000;5.954;2023-02-13T01:44:49;103336.25;;;5.39;100.00
67931;BME280;63902;52.000;5.954;2023-02-13T01:45:52;103342.44;;;5.41;100.00
67931;BME280;63902;52.000;5.954;2023-02-13T01:46:54;103334.56;;;5.41;100.00
67931;BME280;63902;52.000;5.954;2023-02-13T01:47:57;103331.03;;;5.41;100.00
67931;BME280;63902;52.000;5.954;2023-02-13T01:49:02;103336.31;;;5.42;100.00
67931;BME280;63902;52.000;5.954;2023-02-13T01:50:08;103340.72;;;5.43;100.00
67931;BME280;63902;52.000;5.954;2023-02-13T01:51:13;103332.81;;;5.43;100.00
67931;BME280;63902;52.000;5.954;2023-02-13T01:52:16;103330.19;;;5.43;100.00
67931;BME280;63902;52.000;5.954;2023-02-13T01:53:19;103324.03;;;5.41;100.00
67931;BME280;63902;52.000;5.954;2023-02-13T01:54:26;103334.56;;;5.43;100.00
67931;BME280;63902;52.000;5.954;2023-02-13T01:55:30;103326.66;;;5.41;100.00
67931;BME280;63902;52.000;5.954;2023-02-13T01:56:34;103329.28;;;5.43;100.00
67931;BME280;63902;52.000;5.954;2023-02-13T01:57:36;103328.41;;;5.42;100.00
67931;BME280;63902;52.000;5.954;2023-02-13T01:58:40;103327.53;;;5.42;100.00
67931;BME280;63902;52.000;5.954;2023-02-13T01:59:46;103333.69;;;5.42;100.00
67931;BME280;63902;52.000;5.954;2023-02-13T02:00:47;103336.34;;;5.44;100.00
67931;BME280;63902;52.000;5.954;2023-02-13T02:01:48;103343.38;;;5.45;100.00
67931;BME280;63902;52.000;5.954;2023-02-13T02:02:55;103335.50;;;5.45;100.00
67931;BME280;63902;52.000;5.954;2023-02-13T02:03:59;103334.59;;;5.44;100.00
67931;BME280;63902;52.000;5.954;2023-02-13T02:05:05;103331.03;;;5.42;100.00
67931;BME280;63902;52.000;5.954;2023-02-13T02:06:11;103330.16;;;5.42;100.00
67931;BME280;63902;52.000;5.954;2023-02-13T02:07:16;103336.34;;;5.44;100.00
67931;BME280;63902;52.000;5.954;2023-02-13T02:08:18;103331.97;;;5.44;100.00
67931;BME280;63902;52.000;5.954;2023-02-13T02:09:22;103332.84;;;5.45;100.00
67931;BME280;63902;52.000;5.954;2023-02-13T02:10:24;103329.34;;;5.44;100.00
67931;BME280;63902;52.000;5.954;2023-02-13T02:11:31;103330.19;;;5.43;100.00
67931;BME280;63902;52.000;5.954;2023-02-13T02:12:39;103331.09;;;5.45;100.00
67931;BME280;63902;52.000;5.954;2023-02-13T02:13:41;103320.50;;;5.41;100.00
67931;BME280;63902;52.000;5.954;2023-02-13T02:14:42;103331.09;;;5.45;100.00
67931;BME280;63902;52.000;5.954;2023-02-13T02:15:44;103333.72;;;5.44;100.00
67931;BME280;63902;52.000;5.954;2023-02-13T02:16:45;103326.72;;;5.44;100.00
67931;BME280;63902;52.000;5.954;2023-02-13T02:17:46;103329.41;;;5.47;100.00
67931;BME280;63902;52.000;5.954;2023-02-13T02:18:46;103330.28;;;5.48;100.00
67931;BME280;63902;52.000;5.954;2023-02-13T02:19:52;103331.16;;;5.48;100.00
67931;BME280;63902;52.000;5.954;2023-02-13T02:21:20;103324.09;;;5.46;100.00
67931;BME280;63902;52.000;5.954;2023-02-13T02:22:57;103325.03;;;5.48;100.00
67931;BME280;63902;52.000;5.954;2023-02-13T02:24:34;103325.00;;;5.46;100.00
67931;BME280;63902;52.000;5.954;2023-02-13T02:25:49;103331.09;;;5.45;100.00
67931;BME280;63902;52.000;5.954;2023-02-13T02:27:18;103328.47;;;5.45;100.00
67931;BME280;63902;52.000;5.954;2023-02-13T02:28:48;103330.22;;;5.45;100.00
67931;BME280;63902;52.000;5.954;2023-02-13T02:33:29;103319.66;;;5.43;100.00
67931;BME280;63902;52.000;5.954;2023-02-13T02:34:36;103313.44;;;5.39;100.00
67931;BME280;63902;52.000;5.954;2023-02-13T02:35:45;103304.63;;;5.36;100.00
67931;BME280;63902;52.000;5.954;2023-02-13T02:37:01;103317.94;;;5.44;100.00
67931;BME280;63902;52.000;5.954;2023-02-13T02:38:13;103319.66;;;5.43;100.00
67931;BME280;63902;52.000;5.954;2023-02-13T02:39:22;103313.56;;;5.44;100.00
67931;BME280;63902;52.000;5.954;2023-02-13T02:40:33;103311.81;;;5.45;100.00
67931;BME280;63902;52.000;5.954;2023-02-13T02:41:46;103311.63;;;5.37;100.00
67931;BME280;63902;52.000;5.954;2023-02-13T02:42:59;103323.16;;;5.42;100.00
67931;BME280;63902;52.000;5.954;2023-02-13T02:44:11;103296.56;;;5.28;100.00
67931;BME280;63902;52.000;5.954;2023-02-13T02:45:22;103320.56;;;5.44;100.00
67931;BME280;63902;52.000;5.954;2023-02-13T02:46:30;103315.25;;;5.42;100.00
67931;BME280;63902;52.000;5.954;2023-02-13T02:47:41;103313.50;;;5.41;100.00
67931;BME280;63902;52.000;5.954;2023-02-13T02:48:51;103324.09;;;5.44;100.00
67931;BME280;63902;52.000;5.954;2023-02-13T02:50:07;103318.81;;;5.44;100.00
67931;BME280;63902;52.000;5.954;2023-02-13T02:51:18;103320.56;;;5.44;100.00
67931;BME280;63902;52.000;5.954;2023-02-13T02:52:26;103319.66;;;5.43;100.00
67931;BME280;63902;52.000;5.954;2023-02-13T02:53:32;103317.03;;;5.43;100.00
67931;BME280;63902;52.000;5.954;2023-02-13T02:54:39;103320.53;;;5.42;100.00
67931;BME280;63902;52.000;5.954;2023-02-13T02:55:48;103318.78;;;5.43;100.00
67931;BME280;63902;52.000;5.954;2023-02-13T02:56:51;103317.88;;;5.42;100.00
67931;BME280;63902;52.000;5.954;2023-02-13T02:58:01;103323.16;;;5.42;100.00
67931;BME280;63902;52.000;5.954;2023-02-13T02:59:05;103318.72;;;5.39;100.00
67931;BME280;63902;52.000;5.954;2023-02-13T03:00:08;103319.66;;;5.43;100.00
67931;BME280;63902;52.000;5.954;2023-02-13T03:01:13;103324.91;;;5.43;100.00
67931;BME280;63902;52.000;5.954;2023-02-13T03:02:16;103315.25;;;5.42;100.00
67931;BME280;63902;52.000;5.954;2023-02-13T03:03:22;103313.44;;;5.39;100.00
67931;BME280;63902;52.000;5.954;2023-02-13T03:04:25;103316.13;;;5.43;100.00
67931;BME280;63902;52.000;5.954;2023-02-13T03:05:30;103322.28;;;5.43;100.00
67931;BME280;63902;52.000;5.954;2023-02-13T03:06:36;103301.00;;;5.31;100.00
67931;BME280;63902;52.000;5.954;2023-02-13T03:07:38;103317.03;;;5.43;100.00
67931;BME280;63902;52.000;5.954;2023-02-13T03:08:40;103317.03;;;5.43;100.00
67931;BME280;63902;52.000;5.954;2023-02-13T03:09:44;103317.03;;;5.43;100.00
67931;BME280;63902;52.000;5.954;2023-02-13T03:10:46;103312.63;;;5.42;100.00
67931;BME280;63902;52.000;5.954;2023-02-13T03:11:48;103310.88;;;5.43;100.00
67931;BME280;63902;52.000;5.954;2023-02-13T03:12:53;103307.38;;;5.42;100.00
67931;BME280;63902;52.000;5.954;2023-02-13T03:13:54;103313.50;;;5.43;100.00
67931;BME280;63902;52.000;5.954;2023-02-13T03:14:56;103294.09;;;5.36;100.00
67931;BME280;63902;52.000;5.954;2023-02-13T03:15:58;103303.03;;;5.44;100.00
67931;BME280;63902;52.000;5.954;2023-02-13T03:17:00;103306.50;;;5.43;100.00
67931;BME280;63902;52.000;5.954;2023-02-13T03:18:02;103306.50;;;5.43;100.00
67931;BME280;63902;52.000;5.954;2023-02-13T03:19:04;103307.38;;;5.42;100.00
67931;BME280;63902;52.000;5.954;2023-02-13T03:20:18;103295.78;;;5.34;100.00
67931;BME280;63902;52.000;5.954;2023-02-13T03:21:29;103310.00;;;5.42;100.00
67931;BME280;63902;52.000;5.954;2023-02-13T03:22:40;103314.38;;;5.43;100.00
67931;BME280;63902;52.000;5.954;2023-02-13T03:23:45;103307.34;;;5.41;100.00
67931;BME280;63902;52.000;5.954;2023-02-13T03:24:53;103312.59;;;5.41;100.00
67931;BME280;63902;52.000;5.954;2023-02-13T03:26:11;103310.84;;;5.41;100.00
67931;BME280;63902;52.000;5.954;2023-02-13T03:27:26;103309.13;;;5.42;100.00
67931;BME280;63902;52.000;5.954;2023-02-13T03:28:35;103313.50;;;5.41;100.00
67931;BME280;63902;52.000;5.954;2023-02-13T03:29:45;103321.38;;;5.41;100.00
67931;BME280;63902;52.000;5.954;2023-02-13T03:30:57;103322.22;;;5.40;100.00
67931;BME280;63902;52.000;5.954;2023-02-13T03:32:04;103324.91;;;5.42;100.00
67931;BME280;63902;52.000;5.954;2023-02-13T03:33:22;103322.22;;;5.40;100.00
67931;BME280;63902;52.000;5.954;2023-02-13T03:34:32;103317.88;;;5.41;100.00
67931;BME280;63902;52.000;5.954;2023-02-13T03:35:38;103319.53;;;5.37;100.00
67931;BME280;63902;52.000;5.954;2023-02-13T03:36:46;103325.78;;;5.41;100.00
67931;BME280;63902;52.000;5.954;2023-02-13T03:37:49;103316.06;;;5.39;100.00
67931;BME280;63902;52.000;5.954;2023-02-13T03:38:58;103317.81;;;5.39;100.00
67931;BME280;63902;52.000;5.954;2023-02-13T03:40:05;103327.50;;;5.40;100.00
67931;BME280;63902;52.000;5.954;2023-02-13T03:41:13;103322.22;;;5.38;100.00
67931;BME280;63902;52.000;5.954;2023-02-13T03:42:20;103317.81;;;5.39;100.00
67931;BME280;63902;52.000;5.954;2023-02-13T03:43:26;103310.75;;;5.36;100.00
67931;BME280;63902;52.000;5.954;2023-02-13T03:44:32;103316.06;;;5.39;100.00
67931;BME280;63902;52.000;5.954;2023-02-13T03:45:37;103322.22;;;5.40;100.00
67931;BME280;63902;52.000;5.954;2023-02-13T03:46:43;103316.91;;;5.37;100.00
67931;BME280;63902;52.000;5.954;2023-02-13T03:47:46;103318.72;;;5.39;100.00
67931;BME280;63902;52.000;5.954;2023-02-13T03:48:48;103315.16;;;5.37;100.00
67931;BME280;63902;52.000;5.954;2023-02-13T03:49:51;103321.28;;;5.36;100.00
67931;BME280;63902;52.000;5.954;2023-02-13T03:50:53;103322.16;;;5.37;100.00
67931;BME280;63902;52.000;5.954;2023-02-13T03:51:56;103314.28;;;5.37;100.00
67931;BME280;63902;52.000;5.954;2023-02-13T03:53:00;103326.59;;;5.38;100.00
67931;BME280;63902;52.000;5.954;2023-02-13T03:54:06;103323.03;;;5.37;100.00
67931;BME280;63902;52.000;5.954;2023-02-13T03:55:13;103323.03;;;5.37;100.00
67931;BME280;63902;52.000;5.954;2023-02-13T03:56:16;103321.28;;;5.36;100.00
67931;BME280;63902;52.000;5.954;2023-02-13T03:57:19;103286.72;;;5.20;100.00
67931;BME280;63902;52.000;5.954;2023-02-13T03:58:23;103323.97;;;5.38;100.00
67931;BME280;63902;52.000;5.954;2023-02-13T03:59:29;103326.59;;;5.38;100.00
67931;BME280;63902;52.000;5.954;2023-02-13T04:00:43;103315.00;;;5.30;100.00
67931;BME280;63902;52.000;5.954;2023-02-13T04:01:50;103326.59;;;5.38;100.00
67931;BME280;63902;52.000;5.954;2023-02-13T04:02:56;103323.03;;;5.36;100.00
67931;BME280;63902;52.000;5.954;2023-02-13T04:04:04;103323.91;;;5.35;100.00
67931;BME280;63902;52.000;5.954;2023-02-13T04:05:14;103329.19;;;5.36;100.00
67931;BME280;63902;52.000;5.954;2023-02-13T04:06:19;103328.28;;;5.36;100.00
67931;BME280;63902;52.000;5.954;2023-02-13T04:07:21;103327.41;;;5.35;100.00
67931;BME280;63902;52.000;5.954;2023-02-13T04:08:23;103328.28;;;5.36;100.00
67931;BME280;63902;52.000;5.954;2023-02-13T04:09:25;103323.91;;;5.36;100.00
67931;BME280;63902;52.000;5.954;2023-02-13T04:10:28;103322.09;;;5.34;100.00
67931;BME280;63902;52.000;5.954;2023-02-13T04:11:34;103323.03;;;5.37;100.00
67931;BME280;63902;52.000;5.954;2023-02-13T04:12:40;103321.34;;;5.38;100.00
67931;BME280;63902;52.000;5.954;2023-02-13T04:13:46;103325.66;;;5.36;100.00
67931;BME280;63902;52.000;5.954;2023-02-13T04:14:53;103322.16;;;5.37;100.00
67931;BME280;63902;52.000;5.954;2023-02-13T04:15:56;103320.41;;;5.37;100.00
67931;BME280;63902;52.000;5.954;2023-02-13T04:17:03;103318.63;;;5.35;100.00
67931;BME280;63902;52.000;5.954;2023-02-13T04:18:08;103318.66;;;5.36;100.00
67931;BME280;63902;52.000;5.954;2023-02-13T04:19:11;103324.78;;;5.37;100.00
67931;BME280;63902;52.000;5.954;2023-02-13T04:20:13;103326.59;;;5.38;100.00
67931;BME280;63902;52.000;5.954;2023-02-13T04:21:14;103325.66;;;5.36;100.00
67931;BME280;63902;52.000;5.954;2023-02-13T04:22:14;103321.28;;;5.35;100.00
67931;BME280;63902;52.000;5.954;2023-02-13T04:23:15;103320.34;;;5.33;100.00
67931;BME280;63902;52.000;5.954;2023-02-13T04:24:15;103326.53;;;5.35;100.00
67931;BME280;63902;52.000;5.954;2023-02-13T04:25:16;103316.84;;;5.34;100.00
67931;BME280;63902;52.000;5.954;2023-02-13T04:26:20;103318.63;;;5.35;100.00
67931;BME280;63902;52.000;5.954;2023-02-13T04:27:24;103323.91;;;5.35;100.00
67931;BME280;63902;52.000;5.954;2023-02-13T04:28:26;103327.38;;;5.34;100.00
67931;BME280;63902;52.000;5.954;2023-02-13T04:29:26;103324.72;;;5.34;100.00
67931;BME280;63902;52.000;5.954;2023-02-13T04:30:27;103325.59;;;5.33;100.00
67931;BME280;63902;52.000;5.954;2023-02-13T04:31:27;103322.91;;;5.31;100.00
67931;BME280;63902;52.000;5.954;2023-02-13T04:32:28;103323.78;;;5.30;100.00
67931;BME280;63902;52.000;5.954;2023-02-13T04:33:28;103319.47;;;5.32;100.00
67931;BME280;63902;52.000;5.954;2023-02-13T04:34:29;103322.97;;;5.33;100.00
67931;BME280;63902;52.000;5.954;2023-02-13T04:35:30;103316.78;;;5.31;100.00
67931;BME280;63902;52.000;5.954;2023-02-13T04:36:31;103323.81;;;5.32;100.00
67931;BME280;63902;52.000;5.954;2023-02-13T04:37:31;103318.53;;;5.32;100.00
67931;BME280;63902;52.000;5.954;2023-02-13T04:38:32;103319.41;;;5.31;100.00
67931;BME280;63902;52.000;5.954;2023-02-13T04:39:32;103323.81;;;5.32;100.00
67931;BME280;63902;52.000;5.954;2023-02-13T04:40:33;103314.13;;;5.29;100.00
67931;BME280;63902;52.000;5.954;2023-02-13T04:41:33;103307.91;;;5.26;100.00
67931;BME280;63902;52.000;5.954;2023-02-13T04:42:34;103322.91;;;5.31;100.00
67931;BME280;63902;52.000;5.954;2023-02-13T04:43:34;103322.91;;;5.30;100.00
67931;BME280;63902;52.000;5.954;2023-02-13T04:44:35;103313.16;;;5.24;100.00
67931;BME280;63902;52.000;5.954;2023-02-13T04:45:35;103310.53;;;5.26;100.00
67931;BME280;63902;52.000;5.954;2023-02-13T04:46:35;103322.88;;;5.28;100.00
67931;BME280;63902;52.000;5.954;2023-02-13T04:47:36;103315.78;;;5.24;100.00
67931;BME280;63902;52.000;5.954;2023-02-13T04:48:36;103322.84;;;5.27;100.00
67931;BME280;63902;52.000;5.954;2023-02-13T04:49:37;103321.91;;;5.25;100.00
67931;BME280;63902;52.000;5.954;2023-02-13T04:50:39;103319.34;;;5.28;100.00
67931;BME280;63902;52.000;5.954;2023-02-13T04:51:40;103318.47;;;5.29;100.00
67931;BME280;63902;52.000;5.954;2023-02-13T04:52:40;103320.22;;;5.27;100.00
67931;BME280;63902;52.000;5.954;2023-02-13T04:53:41;103324.63;;;5.28;100.00
67931;BME280;63902;52.000;5.954;2023-02-13T04:54:41;103318.47;;;5.29;100.00
67931;BME280;63902;52.000;5.954;2023-02-13T04:55:42;103314.97;;;5.27;100.00
67931;BME280;63902;52.000;5.954;2023-02-13T04:56:42;103327.25;;;5.28;100.00
67931;BME280;63902;52.000;5.954;2023-02-13T04:57:43;103314.91;;;5.24;100.00
67931;BME280;63902;52.000;5.954;2023-02-13T04:58:43;103321.97;;;5.28;100.00
67931;BME280;63902;52.000;5.954;2023-02-13T04:59:43;103312.31;;;5.27;100.00
67931;BME280;63902;52.000;5.954;2023-02-13T05:00:44;103319.31;;;5.26;100.00
67931;BME280;63902;52.000;5.954;2023-02-13T05:01:44;103314.03;;;5.25;100.00
67931;BME280;63902;52.000;5.954;2023-02-13T05:02:45;103314.91;;;5.24;100.00
67931;BME280;63902;52.000;5.954;2023-02-13T05:03:45;103316.66;;;5.26;100.00
67931;BME280;63902;52.000;5.954;2023-02-13T05:04:46;103304.38;;;5.24;100.00
67931;BME280;63902;52.000;5.954;2023-02-13T05:05:48;103308.75;;;5.25;100.00
67931;BME280;63902;52.000;5.954;2023-02-13T05:06:49;103311.41;;;5.25;100.00
67931;BME280;63902;52.000;5.954;2023-02-13T05:07:49;103307.00;;;5.24;100.00
67931;BME280;63902;52.000;5.954;2023-02-13T05:08:49;103310.50;;;5.24;100.00
67931;BME280;63902;52.000;5.954;2023-02-13T05:09:50;103311.41;;;5.25;100.00
67931;BME280;63902;52.000;5.954;2023-02-13T05:10:50;103310.50;;;5.24;100.00
67931;BME280;63902;52.000;5.954;2023-02-13T05:11:51;103297.28;;;5.21;100.00
67931;BME280;63902;52.000;5.954;2023-02-13T05:12:51;103305.25;;;5.24;100.00
67931;BME280;63902;52.000;5.954;2023-02-13T05:13:52;103291.16;;;5.22;100.00
67931;BME280;63902;52.000;5.954;2023-02-13T05:14:52;103297.34;;;5.24;100.00
67931;BME280;63902;52.000;5.954;2023-02-13T05:15:53;103291.22;;;5.24;100.00
67931;BME280;63902;52.000;5.954;2023-02-13T05:16:53;103296.50;;;5.25;100.00
67931;BME280;63902;52.000;5.954;2023-02-13T05:17:54;103299.13;;;5.25;100.00
67931;BME280;63902;52.000;5.954;2023-02-13T05:18:54;103293.84;;;5.24;100.00
67931;BME280;63902;52.000;5.954;2023-02-13T05:19:55;103291.22;;;5.24;100.00
67931;BME280;63902;52.000;5.954;2023-02-13T05:20:57;103300.88;;;5.25;100.00
67931;BME280;63902;52.000;5.954;2023-02-13T05:21:57;103298.25;;;5.25;100.00
67931;BME280;63902;52.000;5.954;2023-02-13T05:22:58;103295.59;;;5.25;100.00
67931;BME280;63902;52.000;5.954;2023-02-13T05:23:58;103288.44;;;5.18;100.00
67931;BME280;63902;52.000;5.954;2023-02-13T05:24:59;103292.94;;;5.23;100.00
67931;BME280;63902;52.000;5.954;2023-02-13T05:25:59;103292.94;;;5.23;100.00
67931;BME280;63902;52.000;5.954;2023-02-13T05:26:59;103294.72;;;5.24;100.00
67931;BME280;63902;52.000;5.954;2023-02-13T05:28:00;103300.88;;;5.25;100.00
67931;BME280;63902;52.000;5.954;2023-02-13T05:29:00;103302.63;;;5.26;100.00
67931;BME280;63902;52.000;5.954;2023-02-13T05:30:01;103292.97;;;5.25;100.00
67931;BME280;63902;52.000;5.954;2023-02-13T05:31:01;103292.94;;;5.23;100.00
67931;BME280;63902;52.000;5.954;2023-02-13T05:32:02;103299.09;;;5.24;100.00
67931;BME280;63902;52.000;5.954;2023-02-13T05:33:02;103293.78;;;5.22;100.00
67931;BME280;63902;52.000;5.954;2023-02-13T05:34:03;103287.66;;;5.22;100.00
67931;BME280;63902;52.000;5.954;2023-02-13T05:35:04;103290.28;;;5.23;100.00